sensor_id;sensor_type;location;lat;lon;timestamp;P1;durP1;ratioP1;P2;durP2;ratioP2
78887;SDS011;68276;49.326;8.690;2024-03-02T00:01:58;16.25;;;7.07;;
78887;SDS011;68276;49.326;8.690;2024-03-02T00:04:23;17.98;;;7.63;;
78887;SDS011;68276;49.326;8.690;2024-03-02T00:06:51;16.90;;;7.13;;
78887;SDS011;68276;49.326;8.690;2024-03-02T00:09:19;17.23;;;7.15;;
78887;SDS011;68276;49.326;8.690;2024-03-02T00:11:45;17.23;;;7.70;;
78887;SDS011;68276;49.326;8.690;2024-03-02T00:14:11;17.33;;;7.40;;
78887;SDS011;68276;49.326;8.690;2024-03-02T00:16:37;17.88;;;7.07;;
78887;SDS011;68276;49.326;8.690;2024-03-02T00:19:03;18.02;;;6.65;;
78887;SDS011;68276;49.326;8.690;2024-03-02T00:21:30;14.90;;;7.10;;
78887;SDS011;68276;49.326;8.690;2024-03-02T00:23:56;16.50;;;7.32;;
78887;SDS011;68276;49.326;8.690;2024-03-02T00:26:23;15.60;;;7.43;;
78887;SDS011;68276;49.326;8.690;2024-03-02T00:31:15;15.65;;;6.95;;
78887;SDS011;68276;49.326;8.690;2024-03-02T00:33:45;20.00;;;8.32;;
78887;SDS011;68276;49.326;8.690;2024-03-02T00:36:13;17.75;;;8.60;;
78887;SDS011;68276;49.326;8.690;2024-03-02T00:38:47;15.18;;;6.80;;
78887;SDS011;68276;49.326;8.690;2024-03-02T00:41:24;17.65;;;8.80;;
78887;SDS011;68276;49.326;8.690;2024-03-02T00:46:37;16.30;;;7.85;;
78887;SDS011;68276;49.326;8.690;2024-03-02T00:49:11;18.13;;;7.55;;
78887;SDS011;68276;49.326;8.690;2024-03-02T00:51:46;16.75;;;7.47;;
78887;SDS011;68276;49.326;8.690;2024-03-02T00:54:14;16.92;;;7.78;;
78887;SDS011;68276;49.326;8.690;2024-03-02T00:56:40;15.82;;;7.57;;
78887;SDS011;68276;49.326;8.690;2024-03-02T00:59:06;17.80;;;8.98;;
78887;SDS011;68276;49.326;8.690;2024-03-02T01:01:34;18.92;;;8.52;;
78887;SDS011;68276;49.326;8.690;2024-03-02T01:03:59;18.17;;;8.57;;
78887;SDS011;68276;49.326;8.690;2024-03-02T01:06:25;17.75;;;7.68;;
78887;SDS011;68276;49.326;8.690;2024-03-02T01:08:51;17.13;;;7.78;;
78887;SDS011;68276;49.326;8.690;2024-03-02T01:11:16;16.85;;;7.22;;
78887;SDS011;68276;49.326;8.690;2024-03-02T01:16:08;19.30;;;8.63;;
78887;SDS011;68276;49.326;8.690;2024-03-02T01:18:33;17.42;;;8.05;;
78887;SDS011;68276;49.326;8.690;2024-03-02T01:20:59;16.50;;;8.20;;
78887;SDS011;68276;49.326;8.690;2024-03-02T01:23:24;18.55;;;7.57;;
78887;SDS011;68276;49.326;8.690;2024-03-02T01:25:51;20.10;;;8.05;;
78887;SDS011;68276;49.326;8.690;2024-03-02T01:28:17;18.02;;;7.90;;
78887;SDS011;68276;49.326;8.690;2024-03-02T01:30:44;16.73;;;8.27;;
78887;SDS011;68276;49.326;8.690;2024-03-02T01:33:09;16.83;;;7.25;;
78887;SDS011;68276;49.326;8.690;2024-03-02T01:35:35;16.67;;;7.68;;
78887;SDS011;68276;49.326;8.690;2024-03-02T01:38:02;15.73;;;7.07;;
78887;SDS011;68276;49.326;8.690;2024-03-02T01:40:27;19.20;;;7.47;;
78887;SDS011;68276;49.326;8.690;2024-03-02T01:42:53;17.13;;;6.78;;
78887;SDS011;68276;49.326;8.690;2024-03-02T01:45:20;16.08;;;6.75;;
78887;SDS011;68276;49.326;8.690;2024-03-02T01:47:45;15.88;;;7.03;;
78887;SDS011;68276;49.326;8.690;2024-03-02T01:50:11;15.93;;;6.72;;
78887;SDS011;68276;49.326;8.690;2024-03-02T01:52:37;13.23;;;5.88;;
78887;SDS011;68276;49.326;8.690;2024-03-02T01:55:03;14.25;;;6.22;;
78887;SDS011;68276;49.326;8.690;2024-03-02T01:57:29;16.45;;;6.35;;
78887;SDS011;68276;49.326;8.690;2024-03-02T01:59:54;14.23;;;5.88;;
78887;SDS011;68276;49.326;8.690;2024-03-02T02:02:20;15.35;;;5.68;;
78887;SDS011;68276;49.326;8.690;2024-03-02T02:04:46;15.20;;;5.95;;
78887;SDS011;68276;49.326;8.690;2024-03-02T02:07:12;15.52;;;7.20;;
78887;SDS011;68276;49.326;8.690;2024-03-02T02:09:39;15.10;;;6.90;;
78887;SDS011;68276;49.326;8.690;2024-03-02T02:12:06;16.08;;;7.00;;
78887;SDS011;68276;49.326;8.690;2024-03-02T02:14:32;18.05;;;7.15;;
78887;SDS011;68276;49.326;8.690;2024-03-02T02:16:58;17.35;;;7.30;;
78887;SDS011;68276;49.326;8.690;2024-03-02T02:19:24;16.02;;;7.00;;
78887;SDS011;68276;49.326;8.690;2024-03-02T02:21:49;18.23;;;7.27;;
78887;SDS011;68276;49.326;8.690;2024-03-02T02:24:15;14.93;;;6.30;;
78887;SDS011;68276;49.326;8.690;2024-03-02T02:26:40;16.42;;;6.60;;
78887;SDS011;68276;49.326;8.690;2024-03-02T02:29:05;11.87;;;5.07;;
78887;SDS011;68276;49.326;8.690;2024-03-02T02:31:40;16.50;;;5.85;;
78887;SDS011;68276;49.326;8.690;2024-03-02T02:34:07;14.85;;;5.75;;
78887;SDS011;68276;49.326;8.690;2024-03-02T02:36:33;12.93;;;5.85;;
78887;SDS011;68276;49.326;8.690;2024-03-02T02:39:00;13.77;;;5.43;;
78887;SDS011;68276;49.326;8.690;2024-03-02T02:41:28;14.40;;;6.10;;
78887;SDS011;68276;49.326;8.690;2024-03-02T02:43:54;11.98;;;5.60;;
78887;SDS011;68276;49.326;8.690;2024-03-02T02:46:20;14.95;;;7.18;;
78887;SDS011;68276;49.326;8.690;2024-03-02T02:48:45;18.60;;;7.40;;
78887;SDS011;68276;49.326;8.690;2024-03-02T02:51:11;14.48;;;6.40;;
78887;SDS011;68276;49.326;8.690;2024-03-02T02:53:37;15.73;;;6.20;;
78887;SDS011;68276;49.326;8.690;2024-03-02T02:56:05;17.38;;;7.22;;
78887;SDS011;68276;49.326;8.690;2024-03-02T02:58:31;15.82;;;7.13;;
78887;SDS011;68276;49.326;8.690;2024-03-02T03:00:56;17.07;;;7.80;;
78887;SDS011;68276;49.326;8.690;2024-03-02T03:03:22;16.88;;;7.32;;
78887;SDS011;68276;49.326;8.690;2024-03-02T03:05:48;16.53;;;6.50;;
78887;SDS011;68276;49.326;8.690;2024-03-02T03:08:13;15.48;;;7.03;;
78887;SDS011;68276;49.326;8.690;2024-03-02T03:10:40;15.57;;;6.47;;
78887;SDS011;68276;49.326;8.690;2024-03-02T03:13:06;15.02;;;6.57;;
78887;SDS011;68276;49.326;8.690;2024-03-02T03:17:59;16.27;;;6.95;;
78887;SDS011;68276;49.326;8.690;2024-03-02T03:20:24;14.07;;;6.00;;
78887;SDS011;68276;49.326;8.690;2024-03-02T03:22:50;14.27;;;5.68;;
78887;SDS011;68276;49.326;8.690;2024-03-02T03:25:15;15.55;;;6.88;;
78887;SDS011;68276;49.326;8.690;2024-03-02T03:27:40;13.50;;;6.53;;
78887;SDS011;68276;49.326;8.690;2024-03-02T03:30:06;16.98;;;7.38;;
78887;SDS011;68276;49.326;8.690;2024-03-02T03:32:32;16.67;;;7.05;;
78887;SDS011;68276;49.326;8.690;2024-03-02T03:34:57;21.97;;;8.87;;
78887;SDS011;68276;49.326;8.690;2024-03-02T03:37:23;19.97;;;7.63;;
78887;SDS011;68276;49.326;8.690;2024-03-02T03:39:49;17.35;;;7.75;;
78887;SDS011;68276;49.326;8.690;2024-03-02T03:42:14;19.43;;;7.43;;
78887;SDS011;68276;49.326;8.690;2024-03-02T03:44:40;18.50;;;7.20;;
78887;SDS011;68276;49.326;8.690;2024-03-02T03:47:06;17.20;;;8.13;;
78887;SDS011;68276;49.326;8.690;2024-03-02T03:49:32;17.97;;;8.30;;
78887;SDS011;68276;49.326;8.690;2024-03-02T03:51:57;17.23;;;7.38;;
78887;SDS011;68276;49.326;8.690;2024-03-02T03:54:23;19.83;;;7.95;;
78887;SDS011;68276;49.326;8.690;2024-03-02T03:56:49;15.88;;;7.60;;
78887;SDS011;68276;49.326;8.690;2024-03-02T03:59:15;16.43;;;7.20;;
78887;SDS011;68276;49.326;8.690;2024-03-02T04:01:40;16.70;;;7.80;;
78887;SDS011;68276;49.326;8.690;2024-03-02T04:04:05;16.17;;;7.03;;
78887;SDS011;68276;49.326;8.690;2024-03-02T04:06:31;14.50;;;6.95;;
78887;SDS011;68276;49.326;8.690;2024-03-02T04:08:57;17.38;;;7.80;;
78887;SDS011;68276;49.326;8.690;2024-03-02T04:11:22;15.45;;;6.07;;
78887;SDS011;68276;49.326;8.690;2024-03-02T04:13:48;16.10;;;6.15;;
78887;SDS011;68276;49.326;8.690;2024-03-02T04:16:13;15.37;;;7.30;;
78887;SDS011;68276;49.326;8.690;2024-03-02T04:18:39;17.80;;;7.90;;
78887;SDS011;68276;49.326;8.690;2024-03-02T04:21:04;13.63;;;6.25;;
78887;SDS011;68276;49.326;8.690;2024-03-02T04:23:30;16.55;;;7.22;;
78887;SDS011;68276;49.326;8.690;2024-03-02T04:25:55;16.17;;;6.97;;
78887;SDS011;68276;49.326;8.690;2024-03-02T04:28:21;16.55;;;6.90;;
78887;SDS011;68276;49.326;8.690;2024-03-02T04:30:46;13.37;;;6.17;;
78887;SDS011;68276;49.326;8.690;2024-03-02T04:33:11;15.75;;;5.85;;
78887;SDS011;68276;49.326;8.690;2024-03-02T04:35:37;15.83;;;6.40;;
78887;SDS011;68276;49.326;8.690;2024-03-02T04:38:02;16.92;;;6.95;;
78887;SDS011;68276;49.326;8.690;2024-03-02T04:40:28;15.00;;;5.95;;
78887;SDS011;68276;49.326;8.690;2024-03-02T04:42:53;12.13;;;5.32;;
78887;SDS011;68276;49.326;8.690;2024-03-02T04:45:19;16.27;;;7.15;;
78887;SDS011;68276;49.326;8.690;2024-03-02T04:47:44;13.98;;;5.80;;
78887;SDS011;68276;49.326;8.690;2024-03-02T04:50:10;14.02;;;6.35;;
78887;SDS011;68276;49.326;8.690;2024-03-02T04:52:35;14.83;;;5.93;;
78887;SDS011;68276;49.326;8.690;2024-03-02T04:55:01;15.88;;;6.97;;
78887;SDS011;68276;49.326;8.690;2024-03-02T04:58:00;14.60;;;6.10;;
78887;SDS011;68276;49.326;8.690;2024-03-02T05:00:25;18.10;;;7.63;;
78887;SDS011;68276;49.326;8.690;2024-03-02T05:02:51;14.70;;;6.40;;
78887;SDS011;68276;49.326;8.690;2024-03-02T05:05:16;14.27;;;6.70;;
78887;SDS011;68276;49.326;8.690;2024-03-02T05:07:42;15.73;;;6.78;;
78887;SDS011;68276;49.326;8.690;2024-03-02T05:10:09;13.05;;;5.40;;
78887;SDS011;68276;49.326;8.690;2024-03-02T05:12:34;12.30;;;6.05;;
78887;SDS011;68276;49.326;8.690;2024-03-02T05:15:20;12.82;;;5.68;;
78887;SDS011;68276;49.326;8.690;2024-03-02T05:17:46;15.77;;;6.03;;
78887;SDS011;68276;49.326;8.690;2024-03-02T05:20:12;18.45;;;7.63;;
78887;SDS011;68276;49.326;8.690;2024-03-02T05:22:38;15.40;;;6.95;;
78887;SDS011;68276;49.326;8.690;2024-03-02T05:25:04;15.27;;;6.10;;
78887;SDS011;68276;49.326;8.690;2024-03-02T05:27:30;15.05;;;6.43;;
78887;SDS011;68276;49.326;8.690;2024-03-02T05:29:57;13.77;;;5.93;;
78887;SDS011;68276;49.326;8.690;2024-03-02T05:32:23;14.68;;;7.10;;
78887;SDS011;68276;49.326;8.690;2024-03-02T05:34:48;14.90;;;6.80;;
78887;SDS011;68276;49.326;8.690;2024-03-02T05:37:17;14.60;;;6.75;;
78887;SDS011;68276;49.326;8.690;2024-03-02T05:39:42;13.93;;;6.35;;
78887;SDS011;68276;49.326;8.690;2024-03-02T05:42:08;14.52;;;5.97;;
78887;SDS011;68276;49.326;8.690;2024-03-02T05:44:34;14.43;;;6.25;;
78887;SDS011;68276;49.326;8.690;2024-03-02T05:49:26;12.97;;;5.30;;
78887;SDS011;68276;49.326;8.690;2024-03-02T05:51:51;14.25;;;5.93;;
78887;SDS011;68276;49.326;8.690;2024-03-02T05:54:17;15.32;;;5.72;;
78887;SDS011;68276;49.326;8.690;2024-03-02T05:56:42;14.10;;;6.50;;
78887;SDS011;68276;49.326;8.690;2024-03-02T05:59:07;15.73;;;5.97;;
78887;SDS011;68276;49.326;8.690;2024-03-02T06:01:40;15.73;;;7.18;;
78887;SDS011;68276;49.326;8.690;2024-03-02T06:04:09;15.05;;;7.20;;
78887;SDS011;68276;49.326;8.690;2024-03-02T06:06:38;17.13;;;7.80;;
78887;SDS011;68276;49.326;8.690;2024-03-02T06:09:04;14.98;;;6.63;;
78887;SDS011;68276;49.326;8.690;2024-03-02T06:11:39;16.27;;;6.20;;
78887;SDS011;68276;49.326;8.690;2024-03-02T06:14:08;16.33;;;6.18;;
78887;SDS011;68276;49.326;8.690;2024-03-02T06:16:34;20.40;;;7.18;;
78887;SDS011;68276;49.326;8.690;2024-03-02T06:19:00;15.27;;;7.07;;
78887;SDS011;68276;49.326;8.690;2024-03-02T06:21:26;15.45;;;6.05;;
78887;SDS011;68276;49.326;8.690;2024-03-02T06:23:52;13.50;;;5.85;;
78887;SDS011;68276;49.326;8.690;2024-03-02T06:26:18;16.70;;;6.95;;
78887;SDS011;68276;49.326;8.690;2024-03-02T06:28:44;14.52;;;5.72;;
78887;SDS011;68276;49.326;8.690;2024-03-02T06:31:10;14.93;;;6.60;;
78887;SDS011;68276;49.326;8.690;2024-03-02T06:33:36;16.08;;;6.18;;
78887;SDS011;68276;49.326;8.690;2024-03-02T06:36:01;13.45;;;5.97;;
78887;SDS011;68276;49.326;8.690;2024-03-02T06:38:27;14.98;;;6.50;;
78887;SDS011;68276;49.326;8.690;2024-03-02T06:40:53;16.30;;;5.95;;
78887;SDS011;68276;49.326;8.690;2024-03-02T06:45:48;15.15;;;5.93;;
78887;SDS011;68276;49.326;8.690;2024-03-02T06:48:14;17.00;;;6.50;;
78887;SDS011;68276;49.326;8.690;2024-03-02T06:50:43;17.20;;;6.60;;
78887;SDS011;68276;49.326;8.690;2024-03-02T06:53:09;15.73;;;6.43;;
78887;SDS011;68276;49.326;8.690;2024-03-02T06:55:34;15.50;;;6.35;;
78887;SDS011;68276;49.326;8.690;2024-03-02T06:58:00;15.00;;;6.53;;
78887;SDS011;68276;49.326;8.690;2024-03-02T07:00:25;16.73;;;7.10;;
78887;SDS011;68276;49.326;8.690;2024-03-02T07:02:51;14.32;;;5.93;;
78887;SDS011;68276;49.326;8.690;2024-03-02T07:05:17;19.57;;;7.00;;
78887;SDS011;68276;49.326;8.690;2024-03-02T07:07:42;16.20;;;6.13;;
78887;SDS011;68276;49.326;8.690;2024-03-02T07:10:08;12.73;;;6.13;;
78887;SDS011;68276;49.326;8.690;2024-03-02T07:12:33;14.02;;;5.75;;
78887;SDS011;68276;49.326;8.690;2024-03-02T07:14:59;14.32;;;6.78;;
78887;SDS011;68276;49.326;8.690;2024-03-02T07:17:27;14.23;;;6.10;;
78887;SDS011;68276;49.326;8.690;2024-03-02T07:19:52;15.05;;;5.88;;
78887;SDS011;68276;49.326;8.690;2024-03-02T07:22:18;13.73;;;5.68;;
78887;SDS011;68276;49.326;8.690;2024-03-02T07:24:44;17.00;;;6.63;;
78887;SDS011;68276;49.326;8.690;2024-03-02T07:27:11;14.45;;;6.90;;
78887;SDS011;68276;49.326;8.690;2024-03-02T07:29:38;14.23;;;6.30;;
78887;SDS011;68276;49.326;8.690;2024-03-02T07:32:04;13.50;;;5.72;;
78887;SDS011;68276;49.326;8.690;2024-03-02T07:34:29;17.58;;;7.30;;
78887;SDS011;68276;49.326;8.690;2024-03-02T07:36:55;15.05;;;6.05;;
78887;SDS011;68276;49.326;8.690;2024-03-02T07:39:21;12.80;;;5.85;;
78887;SDS011;68276;49.326;8.690;2024-03-02T07:44:13;13.35;;;6.15;;
78887;SDS011;68276;49.326;8.690;2024-03-02T07:46:42;14.77;;;5.63;;
78887;SDS011;68276;49.326;8.690;2024-03-02T07:49:08;12.25;;;4.88;;
78887;SDS011;68276;49.326;8.690;2024-03-02T07:51:34;15.15;;;6.45;;
78887;SDS011;68276;49.326;8.690;2024-03-02T07:53:59;13.47;;;5.23;;
78887;SDS011;68276;49.326;8.690;2024-03-02T07:56:26;12.85;;;5.50;;
78887;SDS011;68276;49.326;8.690;2024-03-02T07:58:51;14.57;;;5.72;;
78887;SDS011;68276;49.326;8.690;2024-03-02T08:01:18;15.63;;;5.57;;
78887;SDS011;68276;49.326;8.690;2024-03-02T08:03:45;11.52;;;4.82;;
78887;SDS011;68276;49.326;8.690;2024-03-02T08:06:16;16.85;;;5.97;;
78887;SDS011;68276;49.326;8.690;2024-03-02T08:08:42;14.65;;;5.50;;
78887;SDS011;68276;49.326;8.690;2024-03-02T08:11:07;12.90;;;5.85;;
78887;SDS011;68276;49.326;8.690;2024-03-02T08:13:33;14.00;;;5.90;;
78887;SDS011;68276;49.326;8.690;2024-03-02T08:15:58;14.98;;;6.35;;
78887;SDS011;68276;49.326;8.690;2024-03-02T08:18:24;14.18;;;5.68;;
78887;SDS011;68276;49.326;8.690;2024-03-02T08:20:49;11.85;;;5.22;;
78887;SDS011;68276;49.326;8.690;2024-03-02T08:23:15;14.20;;;6.13;;
78887;SDS011;68276;49.326;8.690;2024-03-02T08:25:41;14.25;;;6.00;;
78887;SDS011;68276;49.326;8.690;2024-03-02T08:28:07;11.80;;;5.45;;
78887;SDS011;68276;49.326;8.690;2024-03-02T08:30:32;12.88;;;5.35;;
78887;SDS011;68276;49.326;8.690;2024-03-02T08:32:58;13.10;;;5.53;;
78887;SDS011;68276;49.326;8.690;2024-03-02T08:35:23;12.43;;;5.03;;
78887;SDS011;68276;49.326;8.690;2024-03-02T08:37:48;12.63;;;5.27;;
78887;SDS011;68276;49.326;8.690;2024-03-02T08:40:14;13.00;;;5.43;;
78887;SDS011;68276;49.326;8.690;2024-03-02T08:42:40;12.63;;;5.68;;
78887;SDS011;68276;49.326;8.690;2024-03-02T08:45:06;13.10;;;5.07;;
78887;SDS011;68276;49.326;8.690;2024-03-02T08:47:32;12.00;;;5.25;;
78887;SDS011;68276;49.326;8.690;2024-03-02T08:49:58;14.18;;;4.85;;
78887;SDS011;68276;49.326;8.690;2024-03-02T08:52:24;12.02;;;4.38;;
78887;SDS011;68276;49.326;8.690;2024-03-02T08:54:50;12.27;;;5.20;;
78887;SDS011;68276;49.326;8.690;2024-03-02T08:57:15;12.73;;;5.23;;
78887;SDS011;68276;49.326;8.690;2024-03-02T08:59:41;12.00;;;4.80;;
78887;SDS011;68276;49.326;8.690;2024-03-02T09:02:06;11.00;;;4.65;;
78887;SDS011;68276;49.326;8.690;2024-03-02T09:04:32;11.48;;;4.82;;
78887;SDS011;68276;49.326;8.690;2024-03-02T09:06:58;12.15;;;5.10;;
78887;SDS011;68276;49.326;8.690;2024-03-02T09:09:24;13.60;;;5.18;;
78887;SDS011;68276;49.326;8.690;2024-03-02T09:11:49;10.70;;;4.47;;
78887;SDS011;68276;49.326;8.690;2024-03-02T09:14:15;12.70;;;5.03;;
78887;SDS011;68276;49.326;8.690;2024-03-02T09:16:40;12.18;;;5.18;;
78887;SDS011;68276;49.326;8.690;2024-03-02T09:19:06;11.47;;;4.63;;
78887;SDS011;68276;49.326;8.690;2024-03-02T09:21:31;10.73;;;4.55;;
78887;SDS011;68276;49.326;8.690;2024-03-02T09:23:56;11.03;;;4.43;;
78887;SDS011;68276;49.326;8.690;2024-03-02T09:26:22;12.02;;;4.85;;
78887;SDS011;68276;49.326;8.690;2024-03-02T09:28:49;9.75;;;4.13;;
78887;SDS011;68276;49.326;8.690;2024-03-02T09:31:15;10.98;;;4.47;;
78887;SDS011;68276;49.326;8.690;2024-03-02T09:33:41;12.20;;;4.20;;
78887;SDS011;68276;49.326;8.690;2024-03-02T09:36:16;10.95;;;4.82;;
78887;SDS011;68276;49.326;8.690;2024-03-02T09:38:42;11.18;;;4.38;;
78887;SDS011;68276;49.326;8.690;2024-03-02T09:41:08;10.17;;;4.57;;
78887;SDS011;68276;49.326;8.690;2024-03-02T09:43:33;11.32;;;3.95;;
78887;SDS011;68276;49.326;8.690;2024-03-02T09:45:59;13.15;;;4.25;;
78887;SDS011;68276;49.326;8.690;2024-03-02T09:48:25;10.27;;;4.20;;
78887;SDS011;68276;49.326;8.690;2024-03-02T09:50:50;13.68;;;5.13;;
78887;SDS011;68276;49.326;8.690;2024-03-02T09:53:16;10.90;;;4.43;;
78887;SDS011;68276;49.326;8.690;2024-03-02T09:55:45;11.10;;;4.80;;
78887;SDS011;68276;49.326;8.690;2024-03-02T09:58:12;11.43;;;4.50;;
78887;SDS011;68276;49.326;8.690;2024-03-02T10:00:37;11.43;;;4.20;;
78887;SDS011;68276;49.326;8.690;2024-03-02T10:03:02;10.68;;;4.07;;
78887;SDS011;68276;49.326;8.690;2024-03-02T10:05:29;10.77;;;4.28;;
78887;SDS011;68276;49.326;8.690;2024-03-02T10:08:01;10.77;;;4.55;;
78887;SDS011;68276;49.326;8.690;2024-03-02T10:10:37;9.23;;;3.90;;
78887;SDS011;68276;49.326;8.690;2024-03-02T10:13:11;9.35;;;4.00;;
78887;SDS011;68276;49.326;8.690;2024-03-02T10:15:38;10.38;;;4.30;;
78887;SDS011;68276;49.326;8.690;2024-03-02T10:18:11;12.25;;;4.40;;
78887;SDS011;68276;49.326;8.690;2024-03-02T10:20:38;11.85;;;4.45;;
78887;SDS011;68276;49.326;8.690;2024-03-02T10:23:10;12.52;;;4.63;;
78887;SDS011;68276;49.326;8.690;2024-03-02T10:25:37;10.55;;;3.67;;
78887;SDS011;68276;49.326;8.690;2024-03-02T10:28:02;12.27;;;4.35;;
78887;SDS011;68276;49.326;8.690;2024-03-02T10:30:31;10.35;;;3.88;;
78887;SDS011;68276;49.326;8.690;2024-03-02T10:32:56;12.80;;;4.35;;
78887;SDS011;68276;49.326;8.690;2024-03-02T10:35:22;11.18;;;4.13;;
78887;SDS011;68276;49.326;8.690;2024-03-02T10:37:49;10.98;;;4.30;;
78887;SDS011;68276;49.326;8.690;2024-03-02T10:40:15;10.38;;;4.05;;
78887;SDS011;68276;49.326;8.690;2024-03-02T10:42:41;12.20;;;4.53;;
78887;SDS011;68276;49.326;8.690;2024-03-02T10:45:08;10.75;;;3.92;;
78887;SDS011;68276;49.326;8.690;2024-03-02T10:47:36;9.88;;;3.67;;
78887;SDS011;68276;49.326;8.690;2024-03-02T10:50:04;11.63;;;3.90;;
78887;SDS011;68276;49.326;8.690;2024-03-02T10:52:36;11.38;;;4.03;;
78887;SDS011;68276;49.326;8.690;2024-03-02T10:55:02;11.00;;;3.95;;
78887;SDS011;68276;49.326;8.690;2024-03-02T10:57:41;9.68;;;3.90;;
78887;SDS011;68276;49.326;8.690;2024-03-02T11:00:20;11.55;;;4.40;;
78887;SDS011;68276;49.326;8.690;2024-03-02T11:02:51;9.95;;;4.13;;
78887;SDS011;68276;49.326;8.690;2024-03-02T11:05:24;11.23;;;4.03;;
78887;SDS011;68276;49.326;8.690;2024-03-02T11:07:57;12.73;;;4.82;;
78887;SDS011;68276;49.326;8.690;2024-03-02T11:10:34;10.52;;;3.47;;
78887;SDS011;68276;49.326;8.690;2024-03-02T11:13:05;9.32;;;3.80;;
78887;SDS011;68276;49.326;8.690;2024-03-02T11:15:34;10.57;;;4.22;;
78887;SDS011;68276;49.326;8.690;2024-03-02T11:18:03;9.80;;;3.53;;
78887;SDS011;68276;49.326;8.690;2024-03-02T11:20:33;9.60;;;3.92;;
78887;SDS011;68276;49.326;8.690;2024-03-02T11:23:06;8.85;;;3.40;;
78887;SDS011;68276;49.326;8.690;2024-03-02T11:25:32;11.07;;;4.07;;
78887;SDS011;68276;49.326;8.690;2024-03-02T11:27:58;10.75;;;4.28;;
78887;SDS011;68276;49.326;8.690;2024-03-02T11:32:56;9.00;;;3.60;;
78887;SDS011;68276;49.326;8.690;2024-03-02T11:35:24;9.48;;;3.80;;
78887;SDS011;68276;49.326;8.690;2024-03-02T11:37:50;10.95;;;3.65;;
78887;SDS011;68276;49.326;8.690;2024-03-02T11:42:47;8.98;;;3.33;;
78887;SDS011;68276;49.326;8.690;2024-03-02T11:45:12;10.07;;;3.78;;
78887;SDS011;68276;49.326;8.690;2024-03-02T11:47:46;9.55;;;3.60;;
78887;SDS011;68276;49.326;8.690;2024-03-02T11:50:15;12.20;;;3.90;;
78887;SDS011;68276;49.326;8.690;2024-03-02T11:52:40;8.90;;;3.50;;
78887;SDS011;68276;49.326;8.690;2024-03-02T11:55:07;9.23;;;3.20;;
78887;SDS011;68276;49.326;8.690;2024-03-02T11:57:34;9.02;;;3.10;;
78887;SDS011;68276;49.326;8.690;2024-03-02T12:00:00;8.68;;;3.28;;
78887;SDS011;68276;49.326;8.690;2024-03-02T12:02:28;9.68;;;3.17;;
78887;SDS011;68276;49.326;8.690;2024-03-02T12:04:54;9.02;;;3.63;;
78887;SDS011;68276;49.326;8.690;2024-03-02T12:07:21;9.00;;;3.65;;
78887;SDS011;68276;49.326;8.690;2024-03-02T12:09:48;8.95;;;3.22;;
78887;SDS011;68276;49.326;8.690;2024-03-02T12:12:15;8.43;;;3.20;;
78887;SDS011;68276;49.326;8.690;2024-03-02T12:14:52;8.40;;;3.30;;
78887;SDS011;68276;49.326;8.690;2024-03-02T12:17:20;11.25;;;3.25;;
78887;SDS011;68276;49.326;8.690;2024-03-02T12:19:45;9.23;;;3.47;;
78887;SDS011;68276;49.326;8.690;2024-03-02T12:22:11;8.40;;;3.28;;
78887;SDS011;68276;49.326;8.690;2024-03-02T12:24:37;7.95;;;2.85;;
78887;SDS011;68276;49.326;8.690;2024-03-02T12:27:03;8.32;;;3.20;;
78887;SDS011;68276;49.326;8.690;2024-03-02T12:29:30;8.38;;;2.63;;
78887;SDS011;68276;49.326;8.690;2024-03-02T12:31:55;10.10;;;2.83;;
78887;SDS011;68276;49.326;8.690;2024-03-02T12:34:22;8.98;;;2.70;;
78887;SDS011;68276;49.326;8.690;2024-03-02T12:39:16;9.98;;;2.97;;
78887;SDS011;68276;49.326;8.690;2024-03-02T12:41:42;7.75;;;3.10;;
78887;SDS011;68276;49.326;8.690;2024-03-02T12:44:08;9.27;;;3.00;;
78887;SDS011;68276;49.326;8.690;2024-03-02T12:46:34;8.25;;;2.95;;
78887;SDS011;68276;49.326;8.690;2024-03-02T12:49:11;8.10;;;2.83;;
78887;SDS011;68276;49.326;8.690;2024-03-02T12:51:37;7.55;;;2.80;;
78887;SDS011;68276;49.326;8.690;2024-03-02T12:54:05;9.65;;;3.13;;
78887;SDS011;68276;49.326;8.690;2024-03-02T12:56:38;8.10;;;2.78;;
78887;SDS011;68276;49.326;8.690;2024-03-02T12:59:10;8.10;;;2.95;;
78887;SDS011;68276;49.326;8.690;2024-03-02T13:01:55;7.22;;;2.70;;
78887;SDS011;68276;49.326;8.690;2024-03-02T13:04:27;7.25;;;2.60;;
78887;SDS011;68276;49.326;8.690;2024-03-02T13:06:54;8.35;;;2.97;;
78887;SDS011;68276;49.326;8.690;2024-03-02T13:09:22;7.97;;;2.75;;
78887;SDS011;68276;49.326;8.690;2024-03-02T13:11:48;6.68;;;2.30;;
78887;SDS011;68276;49.326;8.690;2024-03-02T13:14:14;7.40;;;2.70;;
78887;SDS011;68276;49.326;8.690;2024-03-02T13:16:40;7.00;;;2.60;;
78887;SDS011;68276;49.326;8.690;2024-03-02T13:19:09;7.78;;;2.42;;
78887;SDS011;68276;49.326;8.690;2024-03-02T13:21:36;6.78;;;2.28;;
78887;SDS011;68276;49.326;8.690;2024-03-02T13:24:02;8.77;;;2.30;;
78887;SDS011;68276;49.326;8.690;2024-03-02T13:26:28;6.72;;;2.20;;
78887;SDS011;68276;49.326;8.690;2024-03-02T13:28:55;6.72;;;2.25;;
78887;SDS011;68276;49.326;8.690;2024-03-02T13:31:21;7.13;;;2.00;;
78887;SDS011;68276;49.326;8.690;2024-03-02T13:33:46;5.85;;;1.90;;
78887;SDS011;68276;49.326;8.690;2024-03-02T13:36:11;6.10;;;2.00;;
78887;SDS011;68276;49.326;8.690;2024-03-02T13:41:06;6.53;;;1.87;;
78887;SDS011;68276;49.326;8.690;2024-03-02T13:43:31;5.82;;;1.73;;
78887;SDS011;68276;49.326;8.690;2024-03-02T13:45:58;5.82;;;1.88;;
78887;SDS011;68276;49.326;8.690;2024-03-02T13:48:25;6.43;;;2.10;;
78887;SDS011;68276;49.326;8.690;2024-03-02T13:50:53;5.55;;;1.90;;
78887;SDS011;68276;49.326;8.690;2024-03-02T13:55:47;5.40;;;1.70;;
78887;SDS011;68276;49.326;8.690;2024-03-02T14:00:38;3.58;;;1.20;;
78887;SDS011;68276;49.326;8.690;2024-03-02T14:05:30;8.90;;;1.30;;
78887;SDS011;68276;49.326;8.690;2024-03-02T14:10:20;4.07;;;1.27;;
78887;SDS011;68276;49.326;8.690;2024-03-02T14:12:49;4.50;;;1.25;;
78887;SDS011;68276;49.326;8.690;2024-03-02T14:15:14;4.07;;;1.30;;
78887;SDS011;68276;49.326;8.690;2024-03-02T14:17:40;4.55;;;1.60;;
78887;SDS011;68276;49.326;8.690;2024-03-02T14:22:31;4.15;;;1.60;;
78887;SDS011;68276;49.326;8.690;2024-03-02T14:24:57;4.03;;;1.42;;
78887;SDS011;68276;49.326;8.690;2024-03-02T14:27:22;4.88;;;1.60;;
78887;SDS011;68276;49.326;8.690;2024-03-02T14:29:48;4.43;;;1.48;;
78887;SDS011;68276;49.326;8.690;2024-03-02T14:34:38;5.17;;;1.50;;
78887;SDS011;68276;49.326;8.690;2024-03-02T14:37:04;4.35;;;1.60;;
78887;SDS011;68276;49.326;8.690;2024-03-02T14:39:29;5.50;;;1.40;;
78887;SDS011;68276;49.326;8.690;2024-03-02T14:41:59;4.82;;;1.40;;
78887;SDS011;68276;49.326;8.690;2024-03-02T14:44:25;5.40;;;1.42;;
78887;SDS011;68276;49.326;8.690;2024-03-02T14:46:51;5.80;;;1.50;;
78887;SDS011;68276;49.326;8.690;2024-03-02T14:49:16;3.90;;;1.40;;
78887;SDS011;68276;49.326;8.690;2024-03-02T14:51:45;3.45;;;1.10;;
78887;SDS011;68276;49.326;8.690;2024-03-02T14:54:11;3.08;;;1.30;;
78887;SDS011;68276;49.326;8.690;2024-03-02T14:56:36;4.13;;;1.40;;
78887;SDS011;68276;49.326;8.690;2024-03-02T14:59:02;4.13;;;1.30;;
78887;SDS011;68276;49.326;8.690;2024-03-02T15:01:27;3.80;;;1.30;;
78887;SDS011;68276;49.326;8.690;2024-03-02T15:03:53;4.15;;;1.20;;
78887;SDS011;68276;49.326;8.690;2024-03-02T15:06:18;4.65;;;1.30;;
78887;SDS011;68276;49.326;8.690;2024-03-02T15:08:44;4.03;;;1.42;;
78887;SDS011;68276;49.326;8.690;2024-03-02T15:11:11;3.97;;;1.42;;
78887;SDS011;68276;49.326;8.690;2024-03-02T15:13:37;5.05;;;1.20;;
78887;SDS011;68276;49.326;8.690;2024-03-02T15:16:03;4.78;;;1.50;;
78887;SDS011;68276;49.326;8.690;2024-03-02T15:18:29;5.28;;;1.50;;